Time;durP1;ratioP1;P1;durP2;ratioP2;P2;SDS_P1;SDS_P2;PMS_P1;PMS_P2;Temp;Humidity;BMP_temperature;BMP_pressure;BME280_temperature;BME280_humidity;BME280_pressure;Samples;Min_cycle;Max_cycle;Signal;HPM_P1;HPM_P2
2022/12/16 00:00:01;;;;;;;;;28.75;27.00;;;;;4.27;57.41;35763.19;5029020;28;45477;-92
2022/12/16 00:02:26;;;;;;;;;23.25;21.50;;;;;3.19;57.20;35363.66;5018588;28;45318;-92
2022/12/16 00:04:52;;;;;;;;;30.00;25.00;;;;;3.47;57.36;35381.19;5021233;28;47263;-91
2022/12/16 00:07:17;;;;;;;;;31.75;25.00;;;;;4.05;57.70;35085.16;5009699;28;45717;-92
2022/12/16 00:09:43;;;;;;;;;26.50;25.25;;;;;3.01;57.71;34689.81;5021701;28;45391;-92
2022/12/16 00:12:08;;;;;;;;;32.25;28.75;;;;;4.16;57.75;34427.97;5019339;28;45507;-90
2022/12/16 00:14:33;;;;;;;;;29.75;28.00;;;;;3.76;57.61;34071.91;5022739;28;48335;-94
2022/12/16 00:16:59;;;;;;;;;33.00;26.25;;;;;4.23;57.95;33768.50;5024400;28;45319;-95
2022/12/16 00:19:24;;;;;;;;;31.50;30.25;;;;;3.66;57.38;34066.06;5012653;28;45350;-90
2022/12/16 00:21:50;;;;;;;;;33.50;29.50;;;;;3.53;58.13;33395.03;5016421;28;45470;-90
2022/12/16 00:24:15;;;;;;;;;33.00;30.25;;;;;3.16;57.74;33704.41;5025659;28;46939;-90
2022/12/16 00:26:41;;;;;;;;;35.50;31.75;;;;;3.11;58.18;33701.38;5020600;28;45468;-90
2022/12/16 00:29:06;;;;;;;;;33.75;27.75;;;;;3.93;57.81;33750.19;5034868;28;45574;-90
2022/12/16 00:31:31;;;;;;;;;33.50;29.75;;;;;3.56;58.11;33728.50;5034297;28;45384;-90
2022/12/16 00:33:57;;;;;;;;;32.25;31.25;;;;;3.11;58.05;33370.25;5035651;28;45585;-90
2022/12/16 00:36:23;;;;;;;;;40.75;34.25;;;;;3.21;58.27;33376.00;5010509;28;45515;-90
2022/12/16 00:38:50;;;;;;;;;38.50;33.50;;;;;3.16;58.28;33041.88;5014255;28;45357;-90
2022/12/16 00:41:16;;;;;;;;;43.75;39.00;;;;;3.30;58.37;33049.94;5012435;28;45556;-90
2022/12/16 00:43:41;;;;;;;;;39.25;35.50;;;;;3.29;58.01;33049.34;5024313;28;47860;-90
2022/12/16 00:46:07;;;;;;;;;39.25;37.00;;;;;3.62;58.64;32404.97;5029180;28;45458;-90
2022/12/16 00:48:32;;;;;;;;;38.25;33.50;;;;;3.59;58.81;32072.22;5012844;28;45797;-90
2022/12/16 00:50:58;;;;;;;;;38.25;31.75;;;;;3.04;58.66;31709.25;5012488;28;45649;-91
2022/12/16 00:53:24;;;;;;;;;36.25;32.50;;;;;3.36;58.57;31396.31;5002071;28;48625;-91
2022/12/16 00:55:49;;;;;;;;;37.50;33.75;;;;;3.98;59.27;31099.22;5012691;28;45519;-91
2022/12/16 00:58:15;;;;;;;;;42.25;36.75;;;;;3.14;58.48;30721.59;5018288;28;45537;-91
2022/12/16 01:00:41;;;;;;;;;34.25;34.00;;;;;3.96;58.85;30766.16;5016520;28;45596;-90
2022/12/16 01:03:07;;;;;;;;;35.00;30.50;;;;;3.91;58.65;30763.34;5016332;28;48388;-91
2022/12/16 01:05:33;;;;;;;;;18.50;18.00;;;;;3.77;58.83;31087.63;5031786;28;45388;-90
2022/12/16 01:07:58;;;;;;;;;32.75;31.50;;;;;3.21;59.34;30725.25;5011117;28;45364;-91
2022/12/16 01:10:24;;;;;;;;;37.00;34.75;;;;;2.87;58.92;30375.72;5025431;28;45431;-91
2022/12/16 01:12:50;;;;;;;;;40.75;36.50;;;;;3.29;59.63;30067.22;5015185;28;47700;-91
2022/12/16 01:15:16;;;;;;;;;32.00;28.50;;;;;3.75;59.65;30091.66;5005145;28;45534;-89
2022/12/16 01:17:42;;;;;;;;;39.50;34.75;;;;;3.26;59.54;29734.41;5018848;28;45301;-91
2022/12/16 01:20:08;;;;;;;;;45.00;37.25;;;;;3.80;59.52;29100.06;5031193;28;45509;-91
2022/12/16 01:22:34;;;;;;;;;38.75;33.00;;;;;3.52;59.69;29085.41;5019482;28;47292;-91
2022/12/16 01:25:00;;;;;;;;;44.00;34.50;;;;;3.46;59.62;29413.44;5020522;28;46045;-91
2022/12/16 01:27:27;;;;;;;;;37.25;36.00;;;;;3.09;59.62;29394.09;5028886;28;45383;-90
2022/12/16 01:29:52;;;;;;;;;38.00;31.00;;;;;3.55;59.32;29418.56;5018826;28;45355;-91
2022/12/16 01:32:18;;;;;;;;;46.00;39.00;;;;;3.03;59.34;29060.13;5017937;28;47041;-90
2022/12/16 01:34:50;;;;;;;;;44.50;38.50;;;;;3.02;59.68;29059.59;5020053;28;45342;-91
2022/12/16 01:37:16;;;;;;;;;42.00;37.50;;;;;2.79;59.77;29047.63;5030963;28;45336;-90
2022/12/16 01:39:41;;;;;;;;;40.75;37.50;;;;;2.96;59.43;29056.41;5020733;28;45606;-91
2022/12/16 01:42:15;;;;;;;;;51.50;40.25;;;;;3.20;59.58;29400.00;5022197;28;47038;-91
2022/12/16 01:44:47;;;;;;;;;45.75;40.50;;;;;3.55;59.37;29087.00;5018381;28;45417;-91
2022/12/16 01:47:16;;;;;;;;;44.75;38.75;;;;;3.51;59.92;29085.16;5013556;28;45572;-89
2022/12/16 01:49:47;;;;;;;;;39.25;33.75;;;;;3.48;59.91;28752.06;5033034;28;45510;-89
2022/12/16 01:52:20;;;;;;;;;52.25;39.00;;;;;3.46;59.77;28751.25;5035690;28;45507;-90
2022/12/16 01:54:52;;;;;;;;;29.50;29.00;;;;;3.44;60.02;28750.22;5018312;28;45450;-91
2022/12/16 01:57:32;;;;;;;;;43.75;36.75;;;;;2.99;60.08;29058.00;5033308;28;45454;-88
2022/12/16 01:59:57;;;;;;;;;49.00;39.50;;;;;2.91;60.14;28061.09;5015801;28;45393;-90
2022/12/16 02:02:23;;;;;;;;;43.50;38.50;;;;;2.89;59.99;28060.03;5033978;28;45458;-89
2022/12/16 02:07:33;;;;;;;;;49.25;39.25;;;;;3.24;60.01;28077.56;5034250;28;45878;-86
2022/12/16 02:09:59;;;;;;;;;50.25;39.50;;;;;2.92;60.15;28061.84;5014674;28;45649;-87
2022/12/16 02:12:40;;;;;;;;;43.00;40.00;;;;;3.28;60.08;27748.88;5015506;28;48874;-88
2022/12/16 02:15:26;;;;;;;;;51.00;40.75;;;;;3.27;59.95;28079.13;5032888;28;45876;-88
2022/12/16 02:18:07;;;;;;;;;45.50;39.00;;;;;3.24;60.21;28077.84;5019601;28;45393;-91
2022/12/16 02:20:53;;;;;;;;;44.00;39.00;;;;;3.20;60.27;28075.50;5019119;28;45615;-93
2022/12/16 02:23:52;;;;;;;;;44.00;37.50;;;;;3.18;60.29;27743.75;5012451;28;47283;-94
2022/12/16 02:27:09;;;;;;;;;45.75;37.25;;;;;3.14;60.56;27411.06;5018171;28;45395;-91
2022/12/16 02:30:02;;;;;;;;;49.50;41.00;;;;;3.13;60.25;27079.41;4935420;28;45497;-91
2022/12/16 02:32:50;;;;;;;;;49.00;41.50;;;;;3.10;60.82;26747.31;4940283;28;45604;-92
2022/12/16 02:35:43;;;;;;;;;54.00;42.50;;;;;2.98;60.82;26410.38;4937436;28;48444;-92
2022/12/16 02:38:19;;;;;;;;;42.50;38.25;;;;;2.67;60.76;25734.66;4939073;28;45436;-93
2022/12/16 02:40:56;;;;;;;;;48.25;39.25;;;;;2.46;61.02;25724.88;4938357;28;45531;-90
2022/12/16 02:43:34;;;;;;;;;55.25;42.50;;;;;3.06;61.33;24760.72;4938018;28;45481;-93
2022/12/16 02:46:00;;;;;;;;;52.75;42.25;;;;;2.95;61.21;24425.53;4939746;28;47492;-93
2022/12/16 02:48:26;;;;;;;;;55.75;42.50;;;;;2.90;61.50;24092.75;4950156;28;46180;-91
2022/12/16 02:50:53;;;;;;;;;52.50;41.50;;;;;2.86;61.54;23760.47;4955774;28;45380;-93
2022/12/16 02:53:19;;;;;;;;;45.00;38.75;;;;;2.99;61.74;23435.50;4942819;28;45628;-90
2022/12/16 02:56:18;;;;;;;;;45.25;39.50;;;;;2.99;61.95;22774.34;4939331;28;47443;-92
2022/12/16 02:59:25;;;;;;;;;44.75;41.00;;;;;2.56;61.49;22426.25;4943148;28;45401;-90
2022/12/16 03:02:00;;;;;;;;;52.75;43.25;;;;;2.72;61.93;21772.72;4934343;28;45606;-91
2022/12/16 03:04:50;;;;;;;;;51.75;38.75;;;;;2.96;61.42;21782.16;5016329;22;45342;-90
2022/12/16 03:07:18;;;;;;;;;50.50;40.75;;;;;1.52;61.67;21394.78;5013462;28;48271;-92
2022/12/16 03:09:46;;;;;;;;;48.50;43.25;;;;;1.56;61.85;20737.34;5020447;28;45507;-91
2022/12/16 03:12:18;;;;;;;;;48.50;37.50;;;;;1.14;62.12;20391.97;5025931;28;45312;-95
2022/12/16 03:14:54;;;;;;;;;39.50;37.75;;;;;0.95;61.76;20385.00;5024181;28;45464;-96
2022/12/16 03:17:27;;;;;;;;;45.50;41.00;;;;;2.21;62.18;19772.88;5039169;28;45473;-95
2022/12/16 03:20:18;;;;;;;;;53.75;43.00;;;;;1.78;61.98;19427.72;5021897;28;45388;-95
2022/12/16 03:22:49;;;;;;;;;46.75;42.50;;;;;1.02;61.93;19400.28;5015553;28;45634;-92
2022/12/16 03:25:15;;;;;;;;;43.50;39.25;;;;;0.84;62.29;19064.63;5016805;28;45459;-94
2022/12/16 03:27:52;;;;;;;;;47.25;40.25;;;;;0.96;62.22;18082.00;5036772;28;45548;-93
2022/12/16 03:30:51;;;;;;;;;40.00;35.25;;;;;1.18;62.24;17431.22;5023871;28;45379;-94
2022/12/16 03:33:40;;;;;;;;;48.75;41.75;;;;;0.94;62.81;17094.44;5018831;28;45473;-95
2022/12/16 03:36:15;;;;;;;;;49.75;42.50;;;;;0.96;62.75;16766.41;5022829;28;45421;-94
2022/12/16 03:38:44;;;;;;;;;35.25;33.00;;;;;2.20;62.32;16146.81;5033941;28;48453;-92
2022/12/16 03:41:19;;;;;;;;;47.00;39.00;;;;;0.79;62.92;16103.38;5039470;28;45457;-93
2022/12/16 03:44:02;;;;;;;;;46.50;38.50;;;;;2.21;62.89;15158.91;5037887;28;45429;-95
2022/12/16 03:47:06;;;;;;;;;44.75;37.50;;;;;1.37;63.23;14805.41;5023555;28;45366;-96
2022/12/16 03:49:50;;;;;;;;;42.00;36.75;;;;;0.74;62.72;14130.44;5025013;28;46942;-95
2022/12/16 03:52:17;;;;;;;;;45.50;39.00;;;;;1.57;62.57;13824.25;5007543;28;45398;-95
2022/12/16 03:54:45;;;;;;;;;45.00;38.00;;;;;0.99;62.95;13151.56;5024540;28;45339;-95
2022/12/16 03:57:24;;;;;;;;;40.00;33.75;;;;;2.41;62.88;12859.19;5015884;28;45770;-94
2022/12/16 03:59:52;;;;;;;;;41.50;37.00;;;;;1.02;62.86;12495.25;5034693;28;48216;-91
2022/12/16 04:02:18;;;;;;;;;41.50;37.00;;;;;2.66;63.02;12536.06;5032446;28;45683;-90
2022/12/16 04:04:43;;;;;;;;;38.50;32.50;;;;;1.62;62.80;12510.19;5014425;28;45453;-91
2022/12/16 04:07:20;;;;;;;;;43.50;38.50;;;;;1.07;62.74;12496.28;5020660;28;45809;-91
2022/12/16 04:09:47;;;;;;;;;41.75;37.25;;;;;2.57;63.01;12204.41;5009837;28;45660;-91
2022/12/16 04:25:59;;;;;;;;;47.50;41.25;;;;;2.72;63.26;10561.66;5038932;28;45446;-93
2022/12/16 04:28:27;;;;;;;;;53.50;41.25;;;;;2.79;63.02;10233.69;5022359;28;45617;-93
2022/12/16 04:30:52;;;;;;;;;44.25;38.25;;;;;2.97;63.42;9908.28;5036590;28;47494;-91
